Time;durP1;ratioP1;P1;durP2;ratioP2;P2;SDS_P1;SDS_P2;PMS_P1;PMS_P2;Temp;Humidity;BMP_temperature;BMP_pressure;BME280_temperature;BME280_humidity;BME280_pressure;Samples;Min_cycle;Max_cycle;Signal;HPM_P1;HPM_P2
2023/07/10 00:03:43;;;;;;;;;;;23.10;59.50;;;;;;8310800;28;19913;-71
2023/07/10 00:07:43;;;;;;;;;;;23.10;59.50;;;;;;8326546;28;19913;-71
2023/07/10 00:11:44;;;;;;;;;;;23.10;59.50;;;;;;8326756;28;19921;-71
2023/07/10 00:15:45;;;;;;;;;;;23.10;59.50;;;;;;8326494;28;20286;-71
2023/07/10 00:19:45;;;;;;;;;;;23.10;59.60;;;;;;8327842;28;19909;-71
2023/07/10 00:23:46;;;;;;;;;;;23.10;59.50;;;;;;8327560;28;19913;-71
2023/07/10 00:27:48;;;;;;;;;;;23.10;59.60;;;;;;8309056;28;19913;-71
2023/07/10 00:31:48;;;;;;;;;;;23.10;59.50;;;;;;8309688;28;20363;-71
2023/07/10 00:35:49;;;;;;;;;;;23.10;59.60;;;;;;8327205;28;20389;-71
2023/07/10 00:39:49;;;;;;;;;;;23.10;59.60;;;;;;8327233;28;20016;-71
2023/07/10 00:43:52;;;;;;;;;;;23.10;59.60;;;;;;8327257;28;20277;-71
2023/07/10 00:47:57;;;;;;;;;;;23.00;59.60;;;;;;8327135;28;19916;-71
2023/07/10 00:52:00;;;;;;;;;;;23.00;59.50;;;;;;8327606;28;19912;-71
2023/07/10 00:56:01;;;;;;;;;;;23.10;59.60;;;;;;8327018;28;19908;-71
2023/07/10 01:00:17;;;;;;;;;;;23.00;59.50;;;;;;8309299;28;19909;-71
2023/07/10 01:04:19;;;;;;;;;;;23.00;59.50;;;;;;8327084;28;19905;-71
2023/07/10 01:08:20;;;;;;;;;;;23.10;59.60;;;;;;8309001;28;19967;-71
2023/07/10 01:12:20;;;;;;;;;;;23.00;59.50;;;;;;8293001;28;20004;-71
2023/07/10 01:16:22;;;;;;;;;;;23.10;59.60;;;;;;8326576;28;20008;-71
2023/07/10 01:20:34;;;;;;;;;;;23.00;59.50;;;;;;8326707;28;19905;-71
2023/07/10 01:24:36;;;;;;;;;;;23.00;59.50;;;;;;8327046;28;19930;-71
2023/07/10 01:28:37;;;;;;;;;;;23.00;59.50;;;;;;8308595;28;19960;-71
2023/07/10 01:32:37;;;;;;;;;;;23.00;59.50;;;;;;8326699;28;19909;-71
2023/07/10 01:36:39;;;;;;;;;;;23.00;59.50;;;;;;8326611;28;19909;-71
2023/07/10 01:40:41;;;;;;;;;;;23.00;59.50;;;;;;8330218;28;20407;-71
2023/07/10 01:44:43;;;;;;;;;;;23.00;59.60;;;;;;8332774;28;19905;-71
2023/07/10 01:48:44;;;;;;;;;;;23.00;59.50;;;;;;8333132;28;19909;-71
2023/07/10 01:52:44;;;;;;;;;;;23.00;59.50;;;;;;8331439;28;20372;-71
2023/07/10 01:56:45;;;;;;;;;;;23.00;59.60;;;;;;8332170;28;20389;-71
2023/07/10 02:00:46;;;;;;;;;;;23.00;59.60;;;;;;8332067;28;20322;-71
2023/07/10 02:04:46;;;;;;;;;;;23.00;59.60;;;;;;8314011;28;19909;-71
2023/07/10 02:08:47;;;;;;;;;;;23.00;59.60;;;;;;8331812;28;20294;-71
2023/07/10 02:12:48;;;;;;;;;;;23.00;59.60;;;;;;8331505;28;19913;-71
2023/07/10 02:16:48;;;;;;;;;;;23.00;59.50;;;;;;8331143;28;19979;-71
2023/07/10 02:20:50;;;;;;;;;;;23.00;59.60;;;;;;8330416;28;19909;-71
2023/07/10 02:24:51;;;;;;;;;;;23.00;59.50;;;;;;8330816;28;19909;-71
2023/07/10 02:28:51;;;;;;;;;;;23.00;59.50;;;;;;8313055;28;19921;-72
2023/07/10 02:32:52;;;;;;;;;;;23.00;59.50;;;;;;8331001;28;20267;-71
2023/07/10 02:36:52;;;;;;;;;;;23.00;59.50;;;;;;8330894;28;20350;-71
2023/07/10 02:40:53;;;;;;;;;;;23.00;59.50;;;;;;8313259;28;19975;-71
2023/07/10 02:44:54;;;;;;;;;;;23.00;59.50;;;;;;8330486;28;19905;-71
2023/07/10 02:48:55;;;;;;;;;;;23.00;59.50;;;;;;8312757;28;19912;-71
2023/07/10 02:52:55;;;;;;;;;;;23.00;59.50;;;;;;8328562;28;19931;-71
2023/07/10 02:56:56;;;;;;;;;;;23.00;59.50;;;;;;8312380;28;20332;-71
2023/07/10 03:00:57;;;;;;;;;;;23.00;59.50;;;;;;8330081;28;19913;-71
2023/07/10 03:04:58;;;;;;;;;;;23.00;59.50;;;;;;8311901;28;19916;-71
2023/07/10 03:08:58;;;;;;;;;;;23.00;59.60;;;;;;8279943;28;19913;-71
2023/07/10 03:12:59;;;;;;;;;;;23.00;59.60;;;;;;8296301;28;20004;-72
2023/07/10 03:16:59;;;;;;;;;;;23.00;59.60;;;;;;8296805;28;20382;-71
2023/07/10 03:21:00;;;;;;;;;;;23.00;59.60;;;;;;8296936;28;19913;-71
2023/07/10 03:25:00;;;;;;;;;;;23.00;59.60;;;;;;8296730;28;20059;-71
2023/07/10 03:29:02;;;;;;;;;;;23.00;59.60;;;;;;8296294;28;20339;-71
2023/07/10 03:33:03;;;;;;;;;;;23.00;59.60;;;;;;8296421;28;19964;-71
2023/07/10 03:37:03;;;;;;;;;;;23.00;59.50;;;;;;8313132;28;19909;-71
2023/07/10 03:41:04;;;;;;;;;;;23.00;59.50;;;;;;8339591;28;20003;-71
2023/07/10 03:45:05;;;;;;;;;;;23.00;59.50;;;;;;8311383;28;19911;-71
2023/07/10 03:49:06;;;;;;;;;;;23.00;59.50;;;;;;8310724;28;20409;-71
2023/07/10 03:53:06;;;;;;;;;;;23.00;59.50;;;;;;8328265;28;19909;-71
2023/07/10 03:57:07;;;;;;;;;;;23.00;59.50;;;;;;8327186;28;19905;-71
2023/07/10 04:01:08;;;;;;;;;;;23.00;59.50;;;;;;8328272;28;20002;-71
2023/07/10 04:05:08;;;;;;;;;;;23.00;59.50;;;;;;8293201;28;19909;-71
2023/07/10 04:09:09;;;;;;;;;;;23.00;59.50;;;;;;8328151;28;19909;-71
2023/07/10 04:13:09;;;;;;;;;;;23.00;59.50;;;;;;8327543;28;19968;-71
2023/07/10 04:17:14;;;;;;;;;;;23.00;59.50;;;;;;8328147;28;19920;-71
2023/07/10 04:21:25;;;;;;;;;;;23.00;59.50;;;;;;8327689;28;19960;-71
2023/07/10 04:25:25;;;;;;;;;;;23.00;59.60;;;;;;8327434;28;19955;-71
2023/07/10 04:29:26;;;;;;;;;;;23.00;59.60;;;;;;8327144;28;19909;-71
2023/07/10 04:33:26;;;;;;;;;;;23.00;59.60;;;;;;8327784;28;19987;-71
2023/07/10 04:37:27;;;;;;;;;;;23.00;59.60;;;;;;8306228;28;19910;-71
2023/07/10 04:41:27;;;;;;;;;;;23.00;59.60;;;;;;8277288;28;19916;-71
2023/07/10 04:45:28;;;;;;;;;;;23.00;59.50;;;;;;8293284;28;19981;-71
2023/07/10 04:49:28;;;;;;;;;;;23.00;59.50;;;;;;8276947;28;20351;-71
2023/07/10 04:53:30;;;;;;;;;;;23.00;59.50;;;;;;8294669;28;20095;-70
2023/07/10 04:57:30;;;;;;;;;;;23.00;59.50;;;;;;8294443;28;20260;-70
2023/07/10 05:01:35;;;;;;;;;;;23.00;59.50;;;;;;8294716;28;20587;-71
2023/07/10 05:05:35;;;;;;;;;;;23.00;59.50;;;;;;8303850;28;19913;-70
2023/07/10 05:09:36;;;;;;;;;;;23.00;59.60;;;;;;8331535;28;19913;-71
2023/07/10 05:13:37;;;;;;;;;;;23.00;59.60;;;;;;8327075;28;20051;-70
2023/07/10 05:17:37;;;;;;;;;;;23.00;59.60;;;;;;8333433;28;19905;-71
2023/07/10 05:21:38;;;;;;;;;;;23.00;59.50;;;;;;8331659;28;19916;-71
2023/07/10 05:25:38;;;;;;;;;;;23.00;59.50;;;;;;8333379;28;19909;-71
2023/07/10 05:29:39;;;;;;;;;;;23.00;59.50;;;;;;8332738;28;19904;-71
2023/07/10 05:33:40;;;;;;;;;;;22.90;59.50;;;;;;8332798;28;20638;-71
2023/07/10 05:37:40;;;;;;;;;;;23.00;59.60;;;;;;8332450;28;19913;-70
2023/07/10 05:41:41;;;;;;;;;;;22.90;59.50;;;;;;8332437;28;19936;-70
2023/07/10 05:45:42;;;;;;;;;;;23.00;59.60;;;;;;8314747;28;19909;-71
2023/07/10 05:49:42;;;;;;;;;;;22.90;59.60;;;;;;8332068;28;20358;-71
2023/07/10 05:53:43;;;;;;;;;;;23.00;59.60;;;;;;8332996;28;19939;-70
2023/07/10 05:57:43;;;;;;;;;;;22.90;59.50;;;;;;8331927;28;19909;-71
2023/07/10 06:01:44;;;;;;;;;;;22.90;59.50;;;;;;8314485;28;20560;-70
2023/07/10 06:05:54;;;;;;;;;;;22.90;59.50;;;;;;8313582;28;19913;-70
2023/07/10 06:09:54;;;;;;;;;;;22.90;59.50;;;;;;8330635;28;19905;-71
2023/07/10 06:13:55;;;;;;;;;;;23.00;59.50;;;;;;8331443;28;19924;-71
2023/07/10 06:17:55;;;;;;;;;;;22.90;59.60;;;;;;8313556;28;20260;-70
2023/07/10 06:22:09;;;;;;;;;;;22.90;59.50;;;;;;8331243;28;20286;-70
2023/07/10 06:26:10;;;;;;;;;;;22.90;59.50;;;;;;8330077;28;20000;-71
2023/07/10 06:30:11;;;;;;;;;;;22.90;59.50;;;;;;8313274;28;19920;-71
2023/07/10 06:34:11;;;;;;;;;;;23.00;59.50;;;;;;8330686;28;19909;-71
2023/07/10 06:38:12;;;;;;;;;;;22.90;59.50;;;;;;8329475;28;20007;-70
2023/07/10 06:42:12;;;;;;;;;;;23.00;59.50;;;;;;8296506;28;19909;-70
2023/07/10 06:46:13;;;;;;;;;;;22.90;59.50;;;;;;8329800;28;19913;-71
2023/07/10 06:50:14;;;;;;;;;;;23.00;59.50;;;;;;8312932;28;19905;-71
2023/07/10 06:54:15;;;;;;;;;;;22.90;59.50;;;;;;8330921;28;19909;-71
2023/07/10 06:58:15;;;;;;;;;;;22.90;59.50;;;;;;8330885;28;19920;-70
2023/07/10 07:02:16;;;;;;;;;;;22.90;59.50;;;;;;8331247;28;19909;-71
2023/07/10 07:06:16;;;;;;;;;;;22.90;59.50;;;;;;8333899;28;19924;-70
2023/07/10 07:10:17;;;;;;;;;;;22.90;59.50;;;;;;8337933;28;19909;-70
2023/07/10 07:14:17;;;;;;;;;;;22.90;59.50;;;;;;8342685;28;19932;-70
2023/07/10 07:18:18;;;;;;;;;;;22.90;59.50;;;;;;8330135;28;19909;-71
2023/07/10 07:22:19;;;;;;;;;;;23.00;59.60;;;;;;8332132;28;20297;-71
2023/07/10 07:26:19;;;;;;;;;;;22.90;59.50;;;;;;8329110;28;20297;-70
2023/07/10 07:30:20;;;;;;;;;;;22.90;59.50;;;;;;8295297;28;19913;-70
2023/07/10 07:34:20;;;;;;;;;;;22.90;59.50;;;;;;8329278;28;20309;-71
2023/07/10 07:38:21;;;;;;;;;;;22.90;59.50;;;;;;8328518;28;19909;-71
2023/07/10 07:42:21;;;;;;;;;;;22.90;59.50;;;;;;8329036;28;19905;-71
2023/07/10 07:46:22;;;;;;;;;;;23.00;59.50;;;;;;8328721;28;19913;-71
2023/07/10 07:50:22;;;;;;;;;;;22.90;59.50;;;;;;8328759;28;19931;-70
2023/07/10 07:54:23;;;;;;;;;;;22.90;59.50;;;;;;8310851;28;20008;-71
2023/07/10 07:58:24;;;;;;;;;;;22.90;59.50;;;;;;8328433;28;19931;-71
2023/07/10 08:02:25;;;;;;;;;;;22.90;59.50;;;;;;8327803;28;20418;-70
2023/07/10 08:06:27;;;;;;;;;;;23.00;59.50;;;;;;8327735;28;20381;-70
2023/07/10 08:10:31;;;;;;;;;;;22.90;59.50;;;;;;8328388;28;20372;-71
2023/07/10 08:14:31;;;;;;;;;;;22.90;59.60;;;;;;8328027;28;19921;-71
2023/07/10 08:18:32;;;;;;;;;;;23.00;59.60;;;;;;8328032;28;20390;-71
2023/07/10 08:22:32;;;;;;;;;;;22.90;59.60;;;;;;8328158;28;20263;-71
2023/07/10 08:26:33;;;;;;;;;;;22.90;59.50;;;;;;8309906;28;19917;-71
2023/07/10 08:30:33;;;;;;;;;;;22.90;59.50;;;;;;8326709;28;19909;-71
2023/07/10 08:34:34;;;;;;;;;;;22.90;59.50;;;;;;8328144;28;19991;-71
2023/07/10 08:38:35;;;;;;;;;;;23.00;59.60;;;;;;8327317;28;19944;-71
2023/07/10 08:42:36;;;;;;;;;;;22.90;59.50;;;;;;8326371;28;20323;-71
2023/07/10 08:46:37;;;;;;;;;;;22.90;59.50;;;;;;8326926;28;19912;-71
2023/07/10 08:50:38;;;;;;;;;;;22.90;59.50;;;;;;8330957;28;19988;-71
2023/07/10 08:54:39;;;;;;;;;;;22.90;59.50;;;;;;8334361;28;19912;-71
2023/07/10 08:58:39;;;;;;;;;;;22.90;59.50;;;;;;8333694;28;19916;-71
2023/07/10 09:02:58;;;;;;;;;;;22.90;59.50;;;;;;8334378;28;19920;-71
2023/07/10 09:07:00;;;;;;;;;;;23.00;59.50;;;;;;8333384;28;19913;-71
2023/07/10 09:11:02;;;;;;;;;;;22.90;59.50;;;;;;8333554;28;20051;-71
2023/07/10 09:15:06;;;;;;;;;;;22.90;59.50;;;;;;8333309;28;19916;-71
2023/07/10 09:19:12;;;;;;;;;;;23.00;59.50;;;;;;8333238;28;20012;-71
2023/07/10 09:23:19;;;;;;;;;;;23.00;59.50;;;;;;8333149;28;19912;-71
2023/07/10 09:27:19;;;;;;;;;;;22.90;59.50;;;;;;8332991;28;19975;-70
2023/07/10 09:31:28;;;;;;;;;;;22.90;59.50;;;;;;8332983;28;20012;-70
2023/07/10 09:35:30;;;;;;;;;;;22.90;59.60;;;;;;8331629;28;19932;-70
2023/07/10 09:39:31;;;;;;;;;;;22.90;59.60;;;;;;8332690;28;19920;-71
2023/07/10 09:43:33;;;;;;;;;;;22.90;59.60;;;;;;8332494;28;20380;-71
2023/07/10 09:47:40;;;;;;;;;;;22.90;59.60;;;;;;8331432;28;19913;-71
2023/07/10 09:51:53;;;;;;;;;;;22.90;59.50;;;;;;8332027;28;19910;-71
2023/07/10 09:55:54;;;;;;;;;;;22.90;59.50;;;;;;8331672;28;19905;-71
2023/07/10 09:59:56;;;;;;;;;;;22.90;59.50;;;;;;8331612;28;20468;-71
2023/07/10 10:03:56;;;;;;;;;;;22.90;59.50;;;;;;8313922;28;19956;-71
2023/07/10 10:08:02;;;;;;;;;;;22.90;59.50;;;;;;8313889;28;19916;-71
2023/07/10 10:12:09;;;;;;;;;;;23.00;59.50;;;;;;8331648;28;19905;-71
2023/07/10 10:16:13;;;;;;;;;;;22.90;59.50;;;;;;8333652;28;19923;-71
2023/07/10 10:20:26;;;;;;;;;;;22.90;59.50;;;;;;8313714;28;19952;-71
2023/07/10 10:24:29;;;;;;;;;;;23.00;59.50;;;;;;8313598;28;19905;-71
2023/07/10 10:28:37;;;;;;;;;;;23.00;59.50;;;;;;8331092;28;19915;-71
2023/07/10 10:32:50;;;;;;;;;;;23.00;59.50;;;;;;8331320;28;20290;-71
2023/07/10 10:37:06;;;;;;;;;;;23.00;59.50;;;;;;8330862;28;19909;-71
2023/07/10 10:41:06;;;;;;;;;;;22.90;59.50;;;;;;8330857;28;19905;-71
2023/07/10 10:45:15;;;;;;;;;;;22.90;59.50;;;;;;8330558;28;20003;-71
2023/07/10 10:49:19;;;;;;;;;;;22.90;59.50;;;;;;8330266;28;20251;-71
2023/07/10 10:53:31;;;;;;;;;;;22.90;59.60;;;;;;8330860;28;19905;-71
2023/07/10 10:57:35;;;;;;;;;;;22.90;59.50;;;;;;8330255;28;19964;-71
2023/07/10 11:01:38;;;;;;;;;;;22.90;59.50;;;;;;8330070;28;19952;-71
2023/07/10 11:05:44;;;;;;;;;;;22.90;59.50;;;;;;8329320;28;19912;-71
2023/07/10 11:09:50;;;;;;;;;;;22.90;59.50;;;;;;8329620;28;19909;-70
2023/07/10 11:13:51;;;;;;;;;;;23.00;59.50;;;;;;8327922;28;20386;-71
2023/07/10 11:17:53;;;;;;;;;;;22.90;59.50;;;;;;8329871;28;20361;-70
2023/07/10 11:21:54;;;;;;;;;;;23.00;59.50;;;;;;8329268;28;19956;-70
2023/07/10 11:25:59;;;;;;;;;;;23.00;59.50;;;;;;8329177;28;19920;-70
2023/07/10 11:30:10;;;;;;;;;;;23.00;59.50;;;;;;8329075;28;20341;-71
2023/07/10 11:34:14;;;;;;;;;;;22.90;59.50;;;;;;8329185;28;19909;-70
2023/07/10 11:38:15;;;;;;;;;;;22.90;59.50;;;;;;8328155;28;20254;-71
2023/07/10 11:42:17;;;;;;;;;;;22.90;59.50;;;;;;8327503;28;19909;-71
2023/07/10 11:46:23;;;;;;;;;;;22.90;59.50;;;;;;8329040;28;19925;-70
2023/07/10 11:50:25;;;;;;;;;;;23.00;59.50;;;;;;8328293;28;19954;-71
2023/07/10 11:54:32;;;;;;;;;;;23.00;59.50;;;;;;8328309;28;19909;-71
2023/07/10 11:58:33;;;;;;;;;;;22.90;59.50;;;;;;8328374;28;19957;-71
2023/07/10 12:02:54;;;;;;;;;;;22.90;59.50;;;;;;8328282;28;19905;-71
2023/07/10 12:06:57;;;;;;;;;;;22.90;59.50;;;;;;8327979;28;19916;-71
2023/07/10 12:10:58;;;;;;;;;;;22.90;59.50;;;;;;8327775;28;19905;-70
2023/07/10 12:15:00;;;;;;;;;;;22.90;59.50;;;;;;8327941;28;19928;-71
2023/07/10 12:19:02;;;;;;;;;;;22.90;59.50;;;;;;8327430;28;19962;-70
2023/07/10 12:23:04;;;;;;;;;;;22.90;59.50;;;;;;8326993;28;19909;-71
2023/07/10 12:27:05;;;;;;;;;;;22.90;59.50;;;;;;8326105;28;20000;-71
2023/07/10 12:31:10;;;;;;;;;;;22.90;59.50;;;;;;8327541;28;19910;-71
2023/07/10 12:35:21;;;;;;;;;;;22.90;59.50;;;;;;8326598;28;19915;-71
2023/07/10 12:39:23;;;;;;;;;;;22.90;59.50;;;;;;8327095;28;19909;-71
2023/07/10 12:43:24;;;;;;;;;;;23.00;59.50;;;;;;8327386;28;19951;-71
2023/07/10 12:47:25;;;;;;;;;;;23.00;59.50;;;;;;8327148;28;19909;-71
2023/07/10 12:51:28;;;;;;;;;;;23.00;59.50;;;;;;8327603;28;19909;-70
2023/07/10 12:55:30;;;;;;;;;;;23.00;59.50;;;;;;8327374;28;19944;-71
2023/07/10 12:59:35;;;;;;;;;;;23.00;59.50;;;;;;8309904;28;19912;-71
2023/07/10 13:03:36;;;;;;;;;;;23.00;59.50;;;;;;8327170;28;20285;-71
2023/07/10 13:07:39;;;;;;;;;;;23.00;59.50;;;;;;8326653;28;19913;-71
2023/07/10 13:11:42;;;;;;;;;;;23.00;59.50;;;;;;8326070;28;19909;-71
2023/07/10 13:15:43;;;;;;;;;;;22.90;59.40;;;;;;8327139;28;19924;-70
2023/07/10 13:19:44;;;;;;;;;;;22.90;59.40;;;;;;8327031;28;19912;-71
2023/07/10 13:23:44;;;;;;;;;;;22.90;59.40;;;;;;8327201;28;19971;-71
2023/07/10 13:27:45;;;;;;;;;;;23.00;59.50;;;;;;8308933;28;20392;-71
2023/07/10 13:31:45;;;;;;;;;;;23.00;59.50;;;;;;8326848;28;19952;-70
2023/07/10 13:35:47;;;;;;;;;;;23.00;59.40;;;;;;8329088;28;19909;-71
2023/07/10 13:39:48;;;;;;;;;;;23.00;59.40;;;;;;8332795;28;19905;-70
2023/07/10 13:43:49;;;;;;;;;;;23.00;59.40;;;;;;8333047;28;19954;-71
2023/07/10 13:47:50;;;;;;;;;;;23.00;59.40;;;;;;8332544;28;19948;-71
2023/07/10 13:51:51;;;;;;;;;;;23.00;59.40;;;;;;8332141;28;19913;-71
2023/07/10 13:55:51;;;;;;;;;;;23.00;59.40;;;;;;8314449;28;20339;-71
2023/07/10 13:59:53;;;;;;;;;;;23.00;59.40;;;;;;8330990;28;19955;-71
2023/07/10 14:03:53;;;;;;;;;;;23.00;59.40;;;;;;8331766;28;19909;-71
2023/07/10 14:07:54;;;;;;;;;;;23.00;59.40;;;;;;8308153;28;19956;-71
2023/07/10 14:11:55;;;;;;;;;;;23.00;59.40;;;;;;8298177;28;20268;-70
2023/07/10 14:16:15;;;;;;;;;;;23.00;59.40;;;;;;8297610;28;19917;-71
2023/07/10 14:20:19;;;;;;;;;;;23.00;59.40;;;;;;8299349;28;20314;-71
2023/07/10 14:24:20;;;;;;;;;;;23.00;59.40;;;;;;8298698;28;20472;-71
2023/07/10 14:28:22;;;;;;;;;;;23.00;59.40;;;;;;8298208;28;19924;-71
2023/07/10 14:32:24;;;;;;;;;;;23.00;59.40;;;;;;8298627;28;19913;-71
2023/07/10 14:36:26;;;;;;;;;;;23.00;59.40;;;;;;8310143;28;19912;-71
2023/07/10 14:40:27;;;;;;;;;;;23.00;59.40;;;;;;8313279;28;19905;-71
2023/07/10 14:44:27;;;;;;;;;;;23.00;59.90;;;;;;8331012;28;20370;-71
2023/07/10 14:48:28;;;;;;;;;;;23.00;59.40;;;;;;8329435;28;19936;-71
2023/07/10 14:52:30;;;;;;;;;;;23.00;59.90;;;;;;8330247;28;19982;-71
2023/07/10 14:56:30;;;;;;;;;;;23.00;59.30;;;;;;8330717;28;20281;-71
2023/07/10 15:00:31;;;;;;;;;;;23.00;59.40;;;;;;8330400;28;19935;-71
2023/07/10 15:04:31;;;;;;;;;;;23.00;59.30;;;;;;8330220;28;19909;-71
2023/07/10 15:08:33;;;;;;;;;;;23.00;59.30;;;;;;8329899;28;19920;-71
2023/07/10 15:12:33;;;;;;;;;;;23.00;59.30;;;;;;8311922;28;19955;-71
2023/07/10 15:16:34;;;;;;;;;;;23.00;59.30;;;;;;8329653;28;19917;-71
2023/07/10 15:20:34;;;;;;;;;;;23.00;59.30;;;;;;8329593;28;19948;-71
2023/07/10 15:24:35;;;;;;;;;;;23.00;59.30;;;;;;8311904;28;19909;-71
2023/07/10 15:28:36;;;;;;;;;;;23.00;59.30;;;;;;8329562;28;20362;-71
2023/07/10 15:32:38;;;;;;;;;;;23.00;59.30;;;;;;8329639;28;19905;-71
2023/07/10 15:36:39;;;;;;;;;;;23.00;59.30;;;;;;8328842;28;19905;-71
2023/07/10 15:40:39;;;;;;;;;;;23.00;59.30;;;;;;8329198;28;19954;-71
2023/07/10 15:44:40;;;;;;;;;;;23.00;59.40;;;;;;8328902;28;20361;-71
2023/07/10 15:48:41;;;;;;;;;;;23.00;59.40;;;;;;8311052;28;20633;-71
2023/07/10 15:52:43;;;;;;;;;;;23.00;59.40;;;;;;8310971;28;19909;-71
2023/07/10 15:56:44;;;;;;;;;;;23.00;59.40;;;;;;8310856;28;19909;-71
2023/07/10 16:00:46;;;;;;;;;;;23.00;59.30;;;;;;8328374;28;20005;-71
2023/07/10 16:04:47;;;;;;;;;;;23.00;59.30;;;;;;8311221;28;20394;-71
2023/07/10 16:08:47;;;;;;;;;;;23.00;59.40;;;;;;8310191;28;19913;-71
2023/07/10 16:12:49;;;;;;;;;;;23.00;59.30;;;;;;8328447;28;19909;-71
2023/07/10 16:16:49;;;;;;;;;;;23.00;59.30;;;;;;8327674;28;20464;-71
2023/07/10 16:20:50;;;;;;;;;;;23.00;59.30;;;;;;8327547;28;20299;-71
2023/07/10 16:24:53;;;;;;;;;;;23.00;59.30;;;;;;8327621;28;19909;-71
2023/07/10 16:28:53;;;;;;;;;;;23.00;59.30;;;;;;8327778;28;19917;-71
2023/07/10 16:32:54;;;;;;;;;;;23.00;59.30;;;;;;8327656;28;19931;-71
2023/07/10 16:36:54;;;;;;;;;;;23.00;59.30;;;;;;8327378;28;19921;-71
2023/07/10 16:40:56;;;;;;;;;;;23.00;59.30;;;;;;8327607;28;20322;-71
2023/07/10 16:44:57;;;;;;;;;;;23.00;59.30;;;;;;8327553;28;19918;-72
2023/07/10 16:48:58;;;;;;;;;;;23.00;59.30;;;;;;8309686;28;20008;-71
2023/07/10 16:52:58;;;;;;;;;;;23.00;59.30;;;;;;8309497;28;19924;-71
2023/07/10 16:56:59;;;;;;;;;;;23.00;59.30;;;;;;8327060;28;19919;-71
2023/07/10 17:01:00;;;;;;;;;;;23.00;59.30;;;;;;8327408;28;19932;-71
2023/07/10 17:05:00;;;;;;;;;;;23.00;59.40;;;;;;8326942;28;19960;-72
2023/07/10 17:09:01;;;;;;;;;;;23.00;59.40;;;;;;8309414;28;19917;-71
2023/07/10 17:13:08;;;;;;;;;;;23.00;59.30;;;;;;8332941;28;19913;-71
2023/07/10 17:17:19;;;;;;;;;;;23.00;59.30;;;;;;8333398;28;19913;-71
2023/07/10 17:21:19;;;;;;;;;;;23.00;59.30;;;;;;8333080;28;19904;-71
2023/07/10 17:25:21;;;;;;;;;;;23.00;59.30;;;;;;8332625;28;19915;-71
2023/07/10 17:29:22;;;;;;;;;;;23.00;59.30;;;;;;8333311;28;19921;-71
2023/07/10 17:33:31;;;;;;;;;;;23.00;59.30;;;;;;8332594;28;19909;-71
2023/07/10 17:37:31;;;;;;;;;;;23.00;59.40;;;;;;8332149;28;19909;-71
2023/07/10 17:41:32;;;;;;;;;;;23.00;59.30;;;;;;8332636;28;19959;-71
2023/07/10 17:45:32;;;;;;;;;;;23.00;59.30;;;;;;8332508;28;19909;-72
2023/07/10 17:49:33;;;;;;;;;;;23.00;59.40;;;;;;8331180;28;20302;-71
2023/07/10 17:53:37;;;;;;;;;;;23.10;59.70;;;;;;8330152;28;19937;-71
2023/07/10 17:57:37;;;;;;;;;;;23.20;60.20;;;;;;8327913;28;19913;-71
2023/07/10 18:01:38;;;;;;;;;;;23.30;60.40;;;;;;8298996;28;19916;-71
2023/07/10 18:05:38;;;;;;;;;;;23.40;60.60;;;;;;8302386;28;19913;-71
2023/07/10 18:09:40;;;;;;;;;;;23.40;60.90;;;;;;8329554;28;20007;-71
2023/07/10 18:13:42;;;;;;;;;;;23.50;61.00;;;;;;8331327;28;19972;-71
2023/07/10 18:17:43;;;;;;;;;;;23.50;61.10;;;;;;8312588;28;19905;-71
2023/07/10 18:21:46;;;;;;;;;;;23.50;61.00;;;;;;8329590;28;19912;-72
2023/07/10 18:25:47;;;;;;;;;;;23.50;61.00;;;;;;8312225;28;20378;-71
2023/07/10 18:29:48;;;;;;;;;;;23.50;61.10;;;;;;8312971;28;20318;-71
2023/07/10 18:33:49;;;;;;;;;;;23.50;61.20;;;;;;8329877;28;20420;-71
2023/07/10 18:37:50;;;;;;;;;;;23.50;61.30;;;;;;8329744;28;19909;-71
2023/07/10 18:41:52;;;;;;;;;;;23.50;61.40;;;;;;8329775;28;19909;-71
2023/07/10 18:45:53;;;;;;;;;;;23.50;61.90;;;;;;8331466;28;19905;-71
2023/07/10 18:49:53;;;;;;;;;;;23.50;61.80;;;;;;8332394;28;19913;-71
2023/07/10 18:53:55;;;;;;;;;;;23.60;61.70;;;;;;8332285;28;20386;-71
2023/07/10 18:57:56;;;;;;;;;;;23.60;61.50;;;;;;8331240;28;19905;-71
2023/07/10 19:01:56;;;;;;;;;;;23.60;61.80;;;;;;8314817;28;20008;-71
2023/07/10 19:05:57;;;;;;;;;;;23.50;61.60;;;;;;8332887;28;19928;-71
2023/07/10 19:09:58;;;;;;;;;;;23.50;61.60;;;;;;8330603;28;19959;-71
2023/07/10 19:13:58;;;;;;;;;;;23.50;61.90;;;;;;8332053;28;20004;-72
2023/07/10 19:17:59;;;;;;;;;;;23.50;62.20;;;;;;8331968;28;19910;-71
2023/07/10 19:21:59;;;;;;;;;;;23.50;62.20;;;;;;8332437;28;20012;-71
2023/07/10 19:26:00;;;;;;;;;;;23.50;62.60;;;;;;8318052;28;19925;-72
2023/07/10 19:30:00;;;;;;;;;;;23.50;62.80;;;;;;8335461;28;19952;-71
2023/07/10 19:34:01;;;;;;;;;;;23.50;63.20;;;;;;8325777;28;19956;-71
2023/07/10 19:38:02;;;;;;;;;;;23.50;63.30;;;;;;8370668;28;19968;-71
2023/07/10 19:42:04;;;;;;;;;;;23.60;63.80;;;;;;8336254;28;19893;-72
2023/07/10 19:46:09;;;;;;;;;;;23.50;64.10;;;;;;8364224;28;19956;-72
2023/07/10 19:50:17;;;;;;;;;;;23.50;64.30;;;;;;8334856;28;20358;-73
2023/07/10 19:54:20;;;;;;;;;;;23.50;63.90;;;;;;8342465;28;19966;-73
2023/07/10 19:58:29;;;;;;;;;;;23.50;63.90;;;;;;8330823;28;20058;-73
2023/07/10 20:02:29;;;;;;;;;;;23.50;64.10;;;;;;8327773;28;19952;-72
2023/07/10 20:06:30;;;;;;;;;;;23.50;64.00;;;;;;8343971;28;19917;-71
2023/07/10 20:10:31;;;;;;;;;;;23.50;64.00;;;;;;8327888;28;20035;-71
2023/07/10 20:14:31;;;;;;;;;;;23.50;64.40;;;;;;8328276;28;19921;-73
2023/07/10 20:18:33;;;;;;;;;;;23.50;65.40;;;;;;8327851;28;19909;-72
2023/07/10 20:22:34;;;;;;;;;;;23.50;64.30;;;;;;8327870;28;20114;-72
2023/07/10 20:26:34;;;;;;;;;;;23.50;64.80;;;;;;8310312;28;19917;-72
2023/07/10 20:30:35;;;;;;;;;;;23.50;64.90;;;;;;8328444;28;19905;-73
2023/07/10 20:34:36;;;;;;;;;;;23.50;64.50;;;;;;8310285;28;19909;-72
2023/07/10 20:38:38;;;;;;;;;;;23.50;64.50;;;;;;8327339;28;19948;-72
2023/07/10 20:42:39;;;;;;;;;;;23.50;64.50;;;;;;8309863;28;20441;-73
2023/07/10 20:46:42;;;;;;;;;;;23.50;64.70;;;;;;8325291;28;19917;-73
2023/07/10 20:50:42;;;;;;;;;;;23.50;64.30;;;;;;8318983;28;19933;-72
2023/07/10 20:54:44;;;;;;;;;;;23.40;64.10;;;;;;8276690;28;19909;-72
2023/07/10 20:58:45;;;;;;;;;;;23.50;64.40;;;;;;8316101;28;19924;-73
2023/07/10 21:02:46;;;;;;;;;;;23.50;64.70;;;;;;8326693;28;19909;-71
2023/07/10 21:06:55;;;;;;;;;;;23.50;65.10;;;;;;8326200;28;19909;-73
2023/07/10 21:10:56;;;;;;;;;;;23.50;64.30;;;;;;8326498;28;19909;-73
2023/07/10 21:14:56;;;;;;;;;;;23.50;64.20;;;;;;8308447;28;19928;-71
2023/07/10 21:19:03;;;;;;;;;;;23.50;63.90;;;;;;8325291;28;20290;-71
2023/07/10 21:23:16;;;;;;;;;;;23.50;63.60;;;;;;8325300;28;20338;-70
2023/07/10 21:27:20;;;;;;;;;;;23.50;63.80;;;;;;8325968;28;19940;-71
2023/07/10 21:31:22;;;;;;;;;;;23.50;64.20;;;;;;8325664;28;19963;-71
2023/07/10 21:35:27;;;;;;;;;;;23.50;64.20;;;;;;8325642;28;19905;-71
2023/07/10 21:39:27;;;;;;;;;;;23.50;64.20;;;;;;8325947;28;20229;-71
2023/07/10 21:43:30;;;;;;;;;;;23.50;63.90;;;;;;8326329;28;19924;-71
2023/07/10 21:47:31;;;;;;;;;;;23.50;63.40;;;;;;8326139;28;20409;-71
2023/07/10 21:51:33;;;;;;;;;;;23.40;63.20;;;;;;8325998;28;20341;-71
2023/07/10 21:55:34;;;;;;;;;;;23.40;63.10;;;;;;8325173;28;20480;-71
2023/07/10 21:59:35;;;;;;;;;;;23.40;63.00;;;;;;8314056;28;20267;-71
2023/07/10 22:03:37;;;;;;;;;;;23.40;62.90;;;;;;8331926;28;20363;-71
2023/07/10 22:07:38;;;;;;;;;;;23.40;62.90;;;;;;8331166;28;19919;-71
2023/07/10 22:11:39;;;;;;;;;;;23.30;62.80;;;;;;8331788;28;19909;-71
2023/07/10 22:15:40;;;;;;;;;;;23.30;62.90;;;;;;8331391;28;19917;-71
2023/07/10 22:19:42;;;;;;;;;;;23.30;62.80;;;;;;8331602;28;19912;-71
2023/07/10 22:23:43;;;;;;;;;;;23.30;62.80;;;;;;8331080;28;19920;-71
2023/07/10 22:27:43;;;;;;;;;;;23.30;62.80;;;;;;8331184;28;19913;-71
2023/07/10 22:31:44;;;;;;;;;;;23.20;62.80;;;;;;8313230;28;19960;-71
2023/07/10 22:35:45;;;;;;;;;;;23.20;62.80;;;;;;8330532;28;19979;-71
2023/07/10 22:39:46;;;;;;;;;;;23.20;62.80;;;;;;8330843;28;19912;-72
2023/07/10 22:43:47;;;;;;;;;;;23.20;62.70;;;;;;8312972;28;19909;-71
2023/07/10 22:47:48;;;;;;;;;;;23.20;62.80;;;;;;8329183;28;19939;-71
2023/07/10 22:51:48;;;;;;;;;;;23.20;62.80;;;;;;8330359;28;20378;-71
2023/07/10 22:55:49;;;;;;;;;;;23.10;62.70;;;;;;8330175;28;20007;-71
2023/07/10 22:59:49;;;;;;;;;;;23.20;62.50;;;;;;8331088;28;19909;-71
2023/07/10 23:03:50;;;;;;;;;;;23.20;62.60;;;;;;8329997;28;19960;-71
2023/07/10 23:07:51;;;;;;;;;;;23.20;62.50;;;;;;8328738;28;19909;-71
2023/07/10 23:11:51;;;;;;;;;;;23.20;62.50;;;;;;8311790;28;19909;-71
2023/07/10 23:15:52;;;;;;;;;;;23.20;62.50;;;;;;8329435;28;20008;-71
2023/07/10 23:19:52;;;;;;;;;;;23.20;62.30;;;;;;8329147;28;20438;-71
2023/07/10 23:23:53;;;;;;;;;;;23.20;62.40;;;;;;8295426;28;20285;-71
2023/07/10 23:27:54;;;;;;;;;;;23.20;62.30;;;;;;8329004;28;19960;-71